createdAt,value
2022-12-19T00:02:00.317Z,73.17
2022-12-19T00:04:28.732Z,84.30
2022-12-19T00:06:59.247Z,80.93
2022-12-19T00:09:27.773Z,86.90
2022-12-19T00:11:56.060Z,88.87
2022-12-19T00:14:25.754Z,74.70
2022-12-19T00:16:54.998Z,86.23
2022-12-19T00:19:23.466Z,83.63
2022-12-19T00:21:51.853Z,84.33
2022-12-19T00:24:21.381Z,90.43
2022-12-19T00:26:50.317Z,86.00
2022-12-19T00:29:18.945Z,76.70
2022-12-19T00:31:48.834Z,88.63
2022-12-19T00:34:17.549Z,87.20
2022-12-19T00:36:45.902Z,61.73
2022-12-19T00:39:14.247Z,83.30
2022-12-19T00:41:42.784Z,80.03
2022-12-19T00:44:13.000Z,95.30
2022-12-19T00:46:42.313Z,92.93
2022-12-19T00:49:12.074Z,90.27
2022-12-19T00:51:40.335Z,88.47
2022-12-19T00:54:08.614Z,87.33
2022-12-19T00:56:38.332Z,85.70
2022-12-19T00:59:07.146Z,93.23
2022-12-19T01:01:37.241Z,87.60
2022-12-19T01:07:00.405Z,95.53
2022-12-19T01:09:30.579Z,95.17
2022-12-19T01:12:16.403Z,105.67
2022-12-19T01:14:44.735Z,87.87
2022-12-19T01:17:13.294Z,100.83
2022-12-19T01:19:44.312Z,95.93
2022-12-19T01:22:14.229Z,90.37
2022-12-19T01:24:42.902Z,104.13
2022-12-19T01:27:11.289Z,82.80
2022-12-19T01:29:51.984Z,89.17
2022-12-19T01:32:20.928Z,81.53
2022-12-19T01:34:49.325Z,82.40
2022-12-19T01:37:19.304Z,78.80
2022-12-19T01:39:47.660Z,82.07
2022-12-19T01:42:23.023Z,89.70
2022-12-19T01:45:06.222Z,75.73
2022-12-19T01:47:35.344Z,86.93
2022-12-19T01:50:04.316Z,73.53
2022-12-19T01:52:34.619Z,78.67
2022-12-19T01:55:03.075Z,58.50
2022-12-19T01:57:31.411Z,70.87
2022-12-19T02:00:04.700Z,70.30
2022-12-19T02:02:34.426Z,87.03
2022-12-19T02:05:03.034Z,81.93
2022-12-19T02:07:31.439Z,87.37
2022-12-19T02:10:01.294Z,83.93
2022-12-19T02:12:32.480Z,89.20
2022-12-19T02:15:03.231Z,76.20
2022-12-19T02:17:36.454Z,87.03
2022-12-19T02:20:14.659Z,91.83
2022-12-19T02:22:48.796Z,86.77
2022-12-19T02:25:35.210Z,90.70
2022-12-19T02:28:14.284Z,84.87
2022-12-19T02:30:48.228Z,94.17
2022-12-19T02:33:19.739Z,89.93
2022-12-19T02:35:53.269Z,67.03
2022-12-19T02:38:24.431Z,79.03
2022-12-19T02:40:56.682Z,86.97
2022-12-19T02:43:25.696Z,80.07
2022-12-19T02:45:55.595Z,79.77
2022-12-19T02:48:24.220Z,86.43
2022-12-19T02:50:52.575Z,70.27
2022-12-19T02:53:22.431Z,79.50
2022-12-19T02:56:00.720Z,75.17
2022-12-19T02:58:49.068Z,78.40
2022-12-19T03:01:25.327Z,76.83
2022-12-19T03:03:58.455Z,76.03
2022-12-19T03:06:28.036Z,73.90
2022-12-19T03:09:00.722Z,75.13
2022-12-19T03:11:31.269Z,74.97
2022-12-19T03:14:00.998Z,78.47
2022-12-19T03:16:30.990Z,74.13
2022-12-19T03:18:59.719Z,73.73
2022-12-19T03:21:31.155Z,77.93
2022-12-19T03:23:59.532Z,74.30
2022-12-19T03:26:30.651Z,79.37
2022-12-19T03:29:00.779Z,67.47
2022-12-19T03:31:30.924Z,78.87
2022-12-19T03:34:01.868Z,86.00
2022-12-19T03:36:32.647Z,82.13
2022-12-19T03:39:01.899Z,72.93
2022-12-19T03:41:48.372Z,75.93
2022-12-19T03:44:17.543Z,78.03
2022-12-19T03:46:48.976Z,70.77
2022-12-19T03:49:18.694Z,66.70
2022-12-19T03:51:51.087Z,70.97
2022-12-19T03:54:25.301Z,58.80
2022-12-19T03:56:58.187Z,75.17
2022-12-19T03:59:32.012Z,69.10
2022-12-19T04:02:00.995Z,69.17
2022-12-19T04:04:31.500Z,72.97
2022-12-19T04:07:00.616Z,67.70
2022-12-19T04:09:29.073Z,64.37
2022-12-19T04:12:00.717Z,65.43
2022-12-19T04:14:30.445Z,57.70
2022-12-19T04:17:03.675Z,57.57
2022-12-19T04:19:39.793Z,58.13
2022-12-19T04:22:13.991Z,46.63
2022-12-19T04:24:43.115Z,52.00
2022-12-19T04:27:12.701Z,48.50
2022-12-19T04:29:41.194Z,53.53
2022-12-19T04:32:10.483Z,46.37
2022-12-19T04:34:42.970Z,49.77
2022-12-19T04:37:12.560Z,48.57
2022-12-19T04:39:41.159Z,54.20
2022-12-19T04:42:09.689Z,46.50
2022-12-19T04:44:37.990Z,45.63
2022-12-19T04:47:06.431Z,37.60
2022-12-19T04:49:34.768Z,43.40
2022-12-19T04:52:04.490Z,41.73
2022-12-19T04:54:34.018Z,42.23
2022-12-19T04:57:02.302Z,43.13
2022-12-19T04:59:31.444Z,46.17
2022-12-19T05:01:59.892Z,49.43
2022-12-19T05:04:28.789Z,40.33
2022-12-19T05:06:57.578Z,51.13
2022-12-19T05:09:28.386Z,41.23
2022-12-19T05:11:56.643Z,35.67
2022-12-19T05:14:25.194Z,47.17
2022-12-19T05:16:58.905Z,46.90
2022-12-19T05:19:29.646Z,36.97
2022-12-19T05:21:57.924Z,43.73
2022-12-19T05:24:27.631Z,45.57
2022-12-19T05:26:56.023Z,41.97
2022-12-19T05:29:24.483Z,44.03
2022-12-19T05:31:52.866Z,39.03
2022-12-19T05:34:21.231Z,46.90
2022-12-19T05:36:49.600Z,46.83
2022-12-19T05:39:18.780Z,47.30
2022-12-19T05:41:49.272Z,46.30
2022-12-19T05:44:18.040Z,49.90
2022-12-19T05:46:46.478Z,49.87
2022-12-19T05:49:14.854Z,47.13
2022-12-19T05:51:43.126Z,47.70
2022-12-19T05:54:11.421Z,46.70
2022-12-19T05:56:39.751Z,39.13
2022-12-19T05:59:09.423Z,50.23
2022-12-19T06:01:37.854Z,46.17
2022-12-19T06:04:07.793Z,38.87
2022-12-19T06:06:36.164Z,53.30
2022-12-19T06:09:04.492Z,45.57
2022-12-19T06:11:32.838Z,49.77
2022-12-19T06:14:01.180Z,39.23
2022-12-19T06:16:30.941Z,45.60
2022-12-19T06:18:59.327Z,46.00
2022-12-19T06:21:27.876Z,45.47
2022-12-19T06:23:56.621Z,45.73
2022-12-19T06:26:25.252Z,25.37
2022-12-19T06:28:54.416Z,45.93
2022-12-19T06:31:24.710Z,42.83
2022-12-19T06:33:54.584Z,44.23
2022-12-19T06:36:23.811Z,47.23
2022-12-19T06:38:52.723Z,38.67
2022-12-19T06:41:39.096Z,35.30
2022-12-19T06:44:08.584Z,39.10
2022-12-19T06:46:37.981Z,40.57
2022-12-19T06:49:07.832Z,42.33
2022-12-19T06:51:36.542Z,44.30
2022-12-19T06:54:04.934Z,40.10
2022-12-19T06:56:35.908Z,25.23
2022-12-19T06:59:04.357Z,37.20
2022-12-19T07:01:44.029Z,34.57
2022-12-19T07:04:16.539Z,37.30
2022-12-19T07:06:49.045Z,30.07
2022-12-19T07:09:18.285Z,39.90
2022-12-19T07:11:46.566Z,31.90
2022-12-19T07:14:14.876Z,37.63
2022-12-19T07:16:43.608Z,21.77
2022-12-19T07:19:11.962Z,35.63
2022-12-19T07:21:41.729Z,30.83
2022-12-19T07:24:11.163Z,33.50
2022-12-19T07:26:39.624Z,33.47
2022-12-19T07:29:08.344Z,32.57
2022-12-19T07:31:36.903Z,30.50
2022-12-19T07:34:05.264Z,25.70
2022-12-19T07:36:33.652Z,30.43
2022-12-19T07:39:03.889Z,28.87
2022-12-19T07:41:32.219Z,19.87
2022-12-19T07:44:01.004Z,25.43
2022-12-19T07:46:30.789Z,31.07
2022-12-19T07:48:59.293Z,31.37
2022-12-19T07:51:28.252Z,27.50
2022-12-19T07:53:56.621Z,29.07
2022-12-19T07:56:26.508Z,20.77
2022-12-19T07:58:55.390Z,24.90
2022-12-19T08:01:24.021Z,26.67
2022-12-19T08:03:56.560Z,24.23
2022-12-19T08:06:24.974Z,22.13
2022-12-19T08:08:53.330Z,22.30
2022-12-19T08:11:27.233Z,25.00
2022-12-19T08:13:57.088Z,16.90
2022-12-19T08:16:26.732Z,23.10
2022-12-19T08:18:56.126Z,22.77
2022-12-19T08:21:24.729Z,24.43
2022-12-19T08:23:53.926Z,20.67
2022-12-19T08:26:25.480Z,22.13
2022-12-19T08:28:54.259Z,18.87
2022-12-19T08:31:25.516Z,19.67
2022-12-19T08:33:54.917Z,18.03
2022-12-19T08:36:23.540Z,19.20
2022-12-19T08:38:51.932Z,17.73
2022-12-19T08:41:20.241Z,15.80
2022-12-19T08:43:50.256Z,19.77
2022-12-19T08:46:18.984Z,19.27
2022-12-19T08:48:49.008Z,17.83
2022-12-19T08:51:17.702Z,18.97
2022-12-19T08:53:46.722Z,12.93
2022-12-19T08:56:15.982Z,14.87
2022-12-19T08:58:44.427Z,17.40
2022-12-19T09:01:15.315Z,17.67
2022-12-19T09:04:02.698Z,17.47
2022-12-19T09:06:34.897Z,14.73
2022-12-19T09:09:04.414Z,18.97
2022-12-19T09:11:32.859Z,15.40
2022-12-19T09:14:05.113Z,17.50
2022-12-19T09:16:33.518Z,18.03
2022-12-19T09:19:01.904Z,16.53
2022-12-19T09:21:30.808Z,14.77
2022-12-19T09:24:07.686Z,14.77
2022-12-19T09:26:38.111Z,16.77
2022-12-19T09:29:11.052Z,16.33
2022-12-19T09:31:51.816Z,13.43
2022-12-19T09:34:38.074Z,15.73
2022-12-19T09:37:07.612Z,14.50
2022-12-19T09:39:37.449Z,10.87
2022-12-19T09:42:16.965Z,13.07
2022-12-19T09:44:52.775Z,14.03
2022-12-19T09:47:24.330Z,14.07
2022-12-19T09:49:54.079Z,11.90
2022-12-19T09:52:25.944Z,13.70
2022-12-19T09:54:59.480Z,10.77
2022-12-19T09:57:43.127Z,12.90
2022-12-19T10:00:14.134Z,9.40
2022-12-19T10:02:44.641Z,14.33
2022-12-19T10:05:30.535Z,12.30
2022-12-19T10:08:09.586Z,12.27
2022-12-19T10:12:41.394Z,12.47
2022-12-19T10:13:37.786Z,12.80
2022-12-19T10:16:09.572Z,9.60
2022-12-19T10:18:41.783Z,13.43
2022-12-19T10:21:11.304Z,11.63
2022-12-19T10:23:50.417Z,9.83
2022-12-19T10:26:21.772Z,13.10
2022-12-19T10:29:00.800Z,10.17
2022-12-19T10:31:33.395Z,13.33
2022-12-19T10:34:04.269Z,13.37
2022-12-19T10:37:04.292Z,10.23
2022-12-19T10:39:28.064Z,11.17
2022-12-19T10:42:02.630Z,12.30
2022-12-19T10:44:32.462Z,12.63
2022-12-19T10:47:01.042Z,12.17
2022-12-19T10:49:32.971Z,12.10
2022-12-19T10:52:02.024Z,10.40
2022-12-19T10:54:39.535Z,7.37
2022-12-19T10:57:25.389Z,9.27
2022-12-19T10:59:57.922Z,9.30
2022-12-19T11:02:31.845Z,9.87
2022-12-19T11:05:00.954Z,9.20
2022-12-19T11:07:29.443Z,8.67
2022-12-19T11:10:06.530Z,10.70
2022-12-19T11:17:39.810Z,10.33
2022-12-19T11:19:38.234Z,8.37
2022-12-19T11:27:15.037Z,7.83
2022-12-19T11:29:41.548Z,10.63
2022-12-19T11:29:41.659Z,7.57
2022-12-19T11:30:36.277Z,10.10
2022-12-19T11:33:15.715Z,9.57
2022-12-19T11:35:49.054Z,9.37
2022-12-19T11:38:21.348Z,9.53
2022-12-19T11:40:52.300Z,10.57
2022-12-19T11:43:45.132Z,8.03
2022-12-19T11:46:22.251Z,8.43
2022-12-19T11:48:53.644Z,6.10
2022-12-19T11:51:25.941Z,10.20
2022-12-19T11:54:02.439Z,10.10
2022-12-19T11:56:31.416Z,9.83
2022-12-19T11:59:01.843Z,8.63
2022-12-19T12:01:43.484Z,8.13
2022-12-19T12:04:28.754Z,9.77
2022-12-19T12:06:59.233Z,8.60
2022-12-19T12:15:34.570Z,7.20
2022-12-19T12:17:33.204Z,9.73
2022-12-19T12:25:51.102Z,8.70
2022-12-19T12:31:08.902Z,8.53
2022-12-19T12:31:10.257Z,10.20
2022-12-19T12:31:53.908Z,12.17
2022-12-19T12:32:03.005Z,11.93
2022-12-19T12:35:19.125Z,10.07
2022-12-19T12:35:32.680Z,10.17
2022-12-19T12:38:35.114Z,10.73
2022-12-19T12:41:12.092Z,10.17
2022-12-19T12:43:48.539Z,11.00
2022-12-19T12:46:19.036Z,8.47
2022-12-19T12:48:49.287Z,9.27
2022-12-19T12:51:19.640Z,10.57
2022-12-19T12:53:49.300Z,11.80
2022-12-19T12:56:19.175Z,5.50
2022-12-19T12:59:08.818Z,9.73
2022-12-19T13:01:39.251Z,10.40
2022-12-19T13:04:09.041Z,10.07
2022-12-19T13:06:39.865Z,9.20
2022-12-19T13:09:22.063Z,10.60
2022-12-19T13:12:09.192Z,11.50
2022-12-19T13:14:50.561Z,12.37
2022-12-19T13:17:26.501Z,12.73
2022-12-19T13:19:56.477Z,9.20
2022-12-19T13:22:40.859Z,10.40
2022-12-19T13:25:36.676Z,10.67
2022-12-19T13:28:15.977Z,9.30
2022-12-19T13:31:20.977Z,9.03
2022-12-19T13:34:09.247Z,8.50
2022-12-19T13:39:51.353Z,7.10
2022-12-19T13:39:56.405Z,8.50
2022-12-19T13:43:09.611Z,6.67
2022-12-19T13:45:40.770Z,10.87
2022-12-19T13:48:14.620Z,6.70
2022-12-19T13:50:43.694Z,9.33
2022-12-19T13:53:16.692Z,7.27
2022-12-19T13:55:46.509Z,8.50
2022-12-19T13:58:29.443Z,2.93
2022-12-19T14:00:59.819Z,6.97
2022-12-19T14:03:34.463Z,7.00
2022-12-19T14:06:18.222Z,7.43
2022-12-19T14:09:46.296Z,6.40
2022-12-19T14:13:38.357Z,6.20
2022-12-19T14:14:47.723Z,8.23
2022-12-19T14:17:17.314Z,4.90
2022-12-19T14:19:47.738Z,6.50
2022-12-19T14:22:26.064Z,6.43
2022-12-19T14:24:55.742Z,7.67
2022-12-19T14:28:21.385Z,6.23
2022-12-19T14:30:37.224Z,6.43
2022-12-19T14:33:44.122Z,9.13
2022-12-19T14:36:12.307Z,6.67
2022-12-19T14:39:22.086Z,6.43
2022-12-19T14:42:01.367Z,7.60
2022-12-19T14:52:52.390Z,6.60
2022-12-19T14:54:09.147Z,5.77
2022-12-19T14:54:16.335Z,6.47
2022-12-19T14:54:37.572Z,9.10
2022-12-19T14:59:00.626Z,5.57
2022-12-19T15:01:44.534Z,8.13
2022-12-19T15:04:50.767Z,7.30
2022-12-19T15:07:12.351Z,7.93
2022-12-19T15:11:03.131Z,6.83
2022-12-19T15:14:49.150Z,7.57
2022-12-19T15:15:46.214Z,7.00
2022-12-19T15:18:20.999Z,6.13
2022-12-19T15:20:49.387Z,7.27
2022-12-19T15:23:21.980Z,6.43
2022-12-19T15:26:07.593Z,5.77
2022-12-19T15:28:39.287Z,6.77
2022-12-19T15:31:14.277Z,7.40
2022-12-19T15:34:06.778Z,5.93
2022-12-19T15:36:32.551Z,6.43
2022-12-19T15:39:01.452Z,6.93
2022-12-19T15:41:30.268Z,4.73
2022-12-19T15:44:04.068Z,6.33
2022-12-19T15:46:33.588Z,6.40
2022-12-19T15:49:03.418Z,6.30
2022-12-19T15:51:31.976Z,6.53
2022-12-19T15:54:38.313Z,7.17
2022-12-19T15:56:51.878Z,5.23
2022-12-19T15:59:27.502Z,7.27
2022-12-19T16:02:05.713Z,7.03
2022-12-19T16:04:36.145Z,5.57
2022-12-19T16:07:11.200Z,5.47
2022-12-19T16:09:39.629Z,4.63
2022-12-19T16:12:08.175Z,5.37
2022-12-19T16:14:36.752Z,5.87
2022-12-19T16:17:05.290Z,6.00
2022-12-19T16:19:35.115Z,5.53
2022-12-19T16:22:03.615Z,5.47
2022-12-19T16:24:32.106Z,6.03
2022-12-19T16:27:00.968Z,6.10
2022-12-19T16:29:32.723Z,7.53
2022-12-19T16:32:01.751Z,7.27
2022-12-19T16:34:30.271Z,5.57
2022-12-19T16:37:00.053Z,6.60
2022-12-19T16:39:29.223Z,6.43
2022-12-19T16:41:57.617Z,7.50
2022-12-19T16:44:27.012Z,6.00
2022-12-19T16:46:55.480Z,7.77
2022-12-19T16:49:24.215Z,8.07
2022-12-19T16:52:02.414Z,7.10
2022-12-19T16:54:32.651Z,7.10
2022-12-19T16:57:02.980Z,6.83
2022-12-19T16:59:35.988Z,6.30
2022-12-19T17:02:11.768Z,6.67
2022-12-19T17:04:50.426Z,10.37
2022-12-19T17:07:23.424Z,7.07
2022-12-19T17:09:51.828Z,6.13
2022-12-19T17:12:20.268Z,5.67
2022-12-19T17:14:48.682Z,6.23
2022-12-19T17:17:17.450Z,8.03
2022-12-19T17:19:50.203Z,7.87
2022-12-19T17:22:21.455Z,6.90
2022-12-19T17:24:51.317Z,5.87
2022-12-19T17:27:21.006Z,6.40
2022-12-19T17:29:49.392Z,7.70
2022-12-19T17:32:23.533Z,6.60
2022-12-19T17:34:53.919Z,7.20
2022-12-19T17:37:23.006Z,7.47
2022-12-19T17:39:52.820Z,6.10
2022-12-19T17:42:22.736Z,6.60
2022-12-19T17:44:51.159Z,5.23
2022-12-19T17:47:21.334Z,4.50
2022-12-19T17:49:50.336Z,4.70
2022-12-19T17:52:20.098Z,5.80
2022-12-19T17:54:48.740Z,10.47
2022-12-19T17:57:19.501Z,7.03
2022-12-19T17:59:47.895Z,4.70
2022-12-19T18:02:22.387Z,7.43
2022-12-19T18:04:54.097Z,6.77
2022-12-19T18:07:26.707Z,7.47
2022-12-19T18:09:55.239Z,6.40
2022-12-19T18:12:25.085Z,6.43
2022-12-19T18:14:55.628Z,5.77
2022-12-19T18:17:25.245Z,7.57
2022-12-19T18:19:54.117Z,6.37
2022-12-19T18:22:22.517Z,4.43
2022-12-19T18:24:50.873Z,6.00
2022-12-19T18:27:19.268Z,4.77
2022-12-19T18:29:49.125Z,9.47
2022-12-19T18:32:19.225Z,4.90
2022-12-19T18:34:47.710Z,7.47
2022-12-19T18:37:17.196Z,6.83
2022-12-19T18:39:45.606Z,8.07
2022-12-19T18:42:21.515Z,8.67
2022-12-19T18:44:51.412Z,9.30
2022-12-19T18:47:23.064Z,7.53
2022-12-19T18:49:53.061Z,7.50
2022-12-19T18:52:21.410Z,8.10
2022-12-19T18:54:49.758Z,6.47
2022-12-19T18:57:18.121Z,7.73
2022-12-19T18:59:48.545Z,7.20
2022-12-19T19:02:25.894Z,8.00
2022-12-19T19:04:55.743Z,6.33
2022-12-19T19:07:24.081Z,8.03
2022-12-19T19:09:52.477Z,7.10
2022-12-19T19:12:20.900Z,8.37
2022-12-19T19:14:49.297Z,8.03
2022-12-19T19:17:25.128Z,7.83
2022-12-19T19:19:53.550Z,7.10
2022-12-19T19:22:21.905Z,7.33
2022-12-19T19:24:50.607Z,6.80
2022-12-19T19:27:19.114Z,6.47
2022-12-19T19:29:47.579Z,5.30
2022-12-19T19:32:16.256Z,5.00
2022-12-19T19:34:46.215Z,16.87
2022-12-19T19:37:15.473Z,10.13
2022-12-19T19:39:43.843Z,8.07
2022-12-19T19:42:12.318Z,4.03
2022-12-19T19:44:40.698Z,10.03
2022-12-19T19:47:09.067Z,6.47
2022-12-19T19:49:37.505Z,7.07
2022-12-19T19:52:07.362Z,7.83
2022-12-19T19:54:36.404Z,5.10
2022-12-19T19:57:04.825Z,6.63
2022-12-19T19:59:33.231Z,6.47
2022-12-19T20:02:01.769Z,7.07
2022-12-19T20:04:30.327Z,5.23
2022-12-19T20:06:58.786Z,6.37
2022-12-19T20:09:28.772Z,11.40
2022-12-19T20:11:57.197Z,7.20
2022-12-19T20:14:26.606Z,5.63
2022-12-19T20:16:55.068Z,6.93
2022-12-19T20:19:23.493Z,6.30
2022-12-19T20:21:52.173Z,6.83
2022-12-19T20:24:20.622Z,6.03
2022-12-19T20:26:52.690Z,5.63
2022-12-19T20:29:21.453Z,5.67
2022-12-19T20:31:49.901Z,7.87
2022-12-19T20:34:19.998Z,7.03
2022-12-19T20:36:48.467Z,8.40
2022-12-19T20:39:21.959Z,6.37
2022-12-19T20:41:52.540Z,6.50
2022-12-19T20:44:24.384Z,7.03
2022-12-19T20:46:53.148Z,6.10
2022-12-19T20:49:21.592Z,7.37
2022-12-19T20:51:49.993Z,6.77
2022-12-19T20:54:18.426Z,7.43
2022-12-19T20:56:46.867Z,8.47
2022-12-19T20:59:16.584Z,7.40
2022-12-19T21:01:44.989Z,6.60
2022-12-19T21:04:13.511Z,7.73
2022-12-19T21:06:41.949Z,8.43
2022-12-19T21:09:11.296Z,6.87
2022-12-19T21:11:39.824Z,7.93
2022-12-19T21:14:14.274Z,21.00
2022-12-19T21:16:44.321Z,6.23
2022-12-19T21:19:12.831Z,5.63
2022-12-19T21:21:41.447Z,7.80
2022-12-19T21:24:09.869Z,10.17
2022-12-19T21:26:38.292Z,8.93
2022-12-19T21:29:06.540Z,6.83
2022-12-19T21:31:34.918Z,7.27
2022-12-19T21:34:04.799Z,3.97
2022-12-19T21:36:33.565Z,5.57
2022-12-19T21:39:02.930Z,9.53
2022-12-19T21:41:31.584Z,5.40
2022-12-19T21:44:02.313Z,7.17
2022-12-19T21:46:32.992Z,7.23
2022-12-19T21:49:02.546Z,7.60
2022-12-19T21:51:33.330Z,7.40
2022-12-19T21:54:02.413Z,7.40
2022-12-19T21:56:31.327Z,6.67
2022-12-19T21:59:00.768Z,6.80
2022-12-19T22:01:29.790Z,8.33
2022-12-19T22:04:00.060Z,6.93
2022-12-19T22:06:33.925Z,7.30
2022-12-19T22:09:02.821Z,12.10
2022-12-19T22:11:34.720Z,7.37
2022-12-19T22:14:06.641Z,7.30
2022-12-19T22:16:35.461Z,6.53
2022-12-19T22:19:07.404Z,7.43
2022-12-19T22:21:37.141Z,7.33
2022-12-19T22:24:05.953Z,6.67
2022-12-19T22:26:35.498Z,7.67
2022-12-19T22:29:07.542Z,7.03
2022-12-19T22:31:36.235Z,6.60
2022-12-19T22:34:05.873Z,8.80
2022-12-19T22:36:35.415Z,8.23
2022-12-19T22:39:07.381Z,9.20
2022-12-19T22:41:36.574Z,7.13
2022-12-19T22:44:05.410Z,7.67
2022-12-19T22:46:34.601Z,6.77
2022-12-19T22:49:04.140Z,10.83
2022-12-19T22:51:34.037Z,4.80
2022-12-19T22:54:02.525Z,7.00
2022-12-19T22:56:32.816Z,7.80
2022-12-19T22:59:01.891Z,6.23
2022-12-19T23:01:31.611Z,8.40
2022-12-19T23:04:01.280Z,5.63
2022-12-19T23:06:30.935Z,6.33
2022-12-19T23:08:59.382Z,6.30
2022-12-19T23:11:29.954Z,4.77
2022-12-19T23:13:59.751Z,6.30
2022-12-19T23:16:28.106Z,6.03
2022-12-19T23:18:56.531Z,6.03
2022-12-19T23:21:26.176Z,7.10
2022-12-19T23:23:55.511Z,7.30
2022-12-19T23:26:25.366Z,6.30
2022-12-19T23:28:54.705Z,6.83
2022-12-19T23:31:24.714Z,6.30
2022-12-19T23:33:53.507Z,6.73
2022-12-19T23:36:45.300Z,5.90
2022-12-19T23:39:11.830Z,5.70
2022-12-19T23:41:40.255Z,6.40
2022-12-19T23:44:09.275Z,4.03
2022-12-19T23:46:40.034Z,7.23
2022-12-19T23:49:08.395Z,5.13
2022-12-19T23:51:36.693Z,6.97
2022-12-19T23:54:05.257Z,8.07
2022-12-19T23:56:33.974Z,5.67
2022-12-19T23:59:02.482Z,5.40
